sensor_id;sensor_type;location;lat;lon;timestamp;pressure;altitude;pressure_sealevel;temperature;humidity
70971;BME280;58632;51.718;19.446;2023-04-28T00:02:09;100038.73;;;2.04;100.00
70971;BME280;58632;51.718;19.446;2023-04-28T00:04:35;100039.68;;;2.10;100.00
70971;BME280;58632;51.718;19.446;2023-04-28T00:07:00;100039.28;;;2.16;100.00
70971;BME280;58632;51.718;19.446;2023-04-28T00:09:26;100035.77;;;2.21;100.00
70971;BME280;58632;51.718;19.446;2023-04-28T00:11:51;100036.60;;;2.27;100.00
70971;BME280;58632;51.718;19.446;2023-04-28T00:14:17;100042.95;;;2.29;100.00
70971;BME280;58632;51.718;19.446;2023-04-28T00:16:42;100042.77;;;2.28;100.00
70971;BME280;58632;51.718;19.446;2023-04-28T00:19:08;100050.54;;;2.25;100.00
70971;BME280;58632;51.718;19.446;2023-04-28T00:21:33;100054.09;;;2.23;100.00
70971;BME280;58632;51.718;19.446;2023-04-28T00:23:58;100055.64;;;2.21;100.00
70971;BME280;58632;51.718;19.446;2023-04-28T00:26:24;100054.60;;;2.19;100.00
70971;BME280;58632;51.718;19.446;2023-04-28T00:28:49;100056.53;;;2.16;100.00
70971;BME280;58632;51.718;19.446;2023-04-28T00:31:15;100061.34;;;2.15;100.00
70971;BME280;58632;51.718;19.446;2023-04-28T00:33:41;100055.37;;;2.14;100.00
70971;BME280;58632;51.718;19.446;2023-04-28T00:36:06;100054.70;;;2.16;100.00
70971;BME280;58632;51.718;19.446;2023-04-28T00:38:32;100056.67;;;2.21;100.00
70971;BME280;58632;51.718;19.446;2023-04-28T00:40:57;100057.20;;;2.28;100.00
70971;BME280;58632;51.718;19.446;2023-04-28T00:43:23;100058.05;;;2.34;100.00
70971;BME280;58632;51.718;19.446;2023-04-28T00:45:48;100059.52;;;2.36;100.00
70971;BME280;58632;51.718;19.446;2023-04-28T00:48:14;100059.41;;;2.35;100.00
70971;BME280;58632;51.718;19.446;2023-04-28T00:50:39;100061.55;;;2.32;100.00
70971;BME280;58632;51.718;19.446;2023-04-28T00:53:05;100062.89;;;2.29;100.00
70971;BME280;58632;51.718;19.446;2023-04-28T00:55:31;100061.63;;;2.26;100.00
70971;BME280;58632;51.718;19.446;2023-04-28T00:57:57;100056.50;;;2.20;100.00
70971;BME280;58632;51.718;19.446;2023-04-28T01:00:23;100053.20;;;2.13;100.00
70971;BME280;58632;51.718;19.446;2023-04-28T01:02:50;100056.73;;;2.06;100.00
70971;BME280;58632;51.718;19.446;2023-04-28T01:05:18;100058.49;;;1.98;100.00
70971;BME280;58632;51.718;19.446;2023-04-28T01:07:44;100058.27;;;1.88;100.00
70971;BME280;58632;51.718;19.446;2023-04-28T01:10:09;100059.42;;;1.79;100.00
70971;BME280;58632;51.718;19.446;2023-04-28T01:12:35;100061.38;;;1.73;100.00
70971;BME280;58632;51.718;19.446;2023-04-28T01:15:01;100062.85;;;1.68;100.00
70971;BME280;58632;51.718;19.446;2023-04-28T01:17:26;100066.53;;;1.65;100.00
70971;BME280;58632;51.718;19.446;2023-04-28T01:19:51;100063.38;;;1.62;100.00
70971;BME280;58632;51.718;19.446;2023-04-28T01:22:17;100066.58;;;1.58;100.00
70971;BME280;58632;51.718;19.446;2023-04-28T01:24:43;100063.70;;;1.55;100.00
70971;BME280;58632;51.718;19.446;2023-04-28T01:27:08;100061.31;;;1.50;100.00
70971;BME280;58632;51.718;19.446;2023-04-28T01:29:33;100062.65;;;1.47;100.00
70971;BME280;58632;51.718;19.446;2023-04-28T01:32:01;100061.73;;;1.43;100.00
70971;BME280;58632;51.718;19.446;2023-04-28T01:34:27;100068.49;;;1.38;100.00
70971;BME280;58632;51.718;19.446;2023-04-28T01:36:53;100067.02;;;1.33;100.00
70971;BME280;58632;51.718;19.446;2023-04-28T01:39:18;100067.35;;;1.27;100.00
70971;BME280;58632;51.718;19.446;2023-04-28T01:41:44;100064.79;;;1.20;100.00
70971;BME280;58632;51.718;19.446;2023-04-28T01:44:10;100065.06;;;1.12;100.00
70971;BME280;58632;51.718;19.446;2023-04-28T01:46:37;100064.11;;;1.02;100.00
70971;BME280;58632;51.718;19.446;2023-04-28T01:49:02;100062.77;;;0.91;100.00
70971;BME280;58632;51.718;19.446;2023-04-28T01:51:28;100062.55;;;0.81;100.00
70971;BME280;58632;51.718;19.446;2023-04-28T01:53:53;100061.53;;;0.73;100.00
70971;BME280;58632;51.718;19.446;2023-04-28T01:56:18;100061.43;;;0.69;100.00
70971;BME280;58632;51.718;19.446;2023-04-28T01:58:45;100059.09;;;0.67;100.00
70971;BME280;58632;51.718;19.446;2023-04-28T02:01:10;100058.70;;;0.66;100.00
70971;BME280;58632;51.718;19.446;2023-04-28T02:03:36;100059.08;;;0.67;100.00
70971;BME280;58632;51.718;19.446;2023-04-28T02:06:03;100059.97;;;0.68;100.00
70971;BME280;58632;51.718;19.446;2023-04-28T02:08:29;100058.86;;;0.67;100.00
70971;BME280;58632;51.718;19.446;2023-04-28T02:10:54;100060.17;;;0.68;100.00
70971;BME280;58632;51.718;19.446;2023-04-28T02:13:22;100059.79;;;0.62;100.00
70971;BME280;58632;51.718;19.446;2023-04-28T02:15:47;100055.29;;;0.54;100.00
70971;BME280;58632;51.718;19.446;2023-04-28T02:18:12;100054.00;;;0.50;100.00
70971;BME280;58632;51.718;19.446;2023-04-28T02:20:45;100054.56;;;0.47;100.00
70971;BME280;58632;51.718;19.446;2023-04-28T02:23:11;100056.67;;;0.44;100.00
70971;BME280;58632;51.718;19.446;2023-04-28T02:25:36;100058.81;;;0.38;100.00
70971;BME280;58632;51.718;19.446;2023-04-28T02:28:01;100060.02;;;0.33;100.00
70971;BME280;58632;51.718;19.446;2023-04-28T02:30:28;100063.27;;;0.26;100.00
70971;BME280;58632;51.718;19.446;2023-04-28T02:32:53;100065.63;;;0.18;100.00
70971;BME280;58632;51.718;19.446;2023-04-28T02:35:18;100065.44;;;0.13;100.00
70971;BME280;58632;51.718;19.446;2023-04-28T02:37:44;100067.62;;;0.11;100.00
70971;BME280;58632;51.718;19.446;2023-04-28T02:40:10;100063.11;;;0.09;100.00
70971;BME280;58632;51.718;19.446;2023-04-28T02:42:36;100065.42;;;0.09;100.00
70971;BME280;58632;51.718;19.446;2023-04-28T02:45:01;100069.02;;;0.11;100.00
70971;BME280;58632;51.718;19.446;2023-04-28T02:47:26;100063.75;;;0.12;100.00
70971;BME280;58632;51.718;19.446;2023-04-28T02:49:52;100066.48;;;0.08;100.00
70971;BME280;58632;51.718;19.446;2023-04-28T02:52:18;100068.92;;;0.08;100.00
70971;BME280;58632;51.718;19.446;2023-04-28T02:54:43;100073.29;;;0.09;100.00
70971;BME280;58632;51.718;19.446;2023-04-28T02:57:12;100073.73;;;0.09;100.00
70971;BME280;58632;51.718;19.446;2023-04-28T02:59:38;100076.64;;;0.06;100.00
70971;BME280;58632;51.718;19.446;2023-04-28T03:02:03;100077.82;;;0.02;100.00
70971;BME280;58632;51.718;19.446;2023-04-28T03:04:29;100077.30;;;-0.03;100.00
70971;BME280;58632;51.718;19.446;2023-04-28T03:06:54;100074.67;;;-0.09;100.00
70971;BME280;58632;51.718;19.446;2023-04-28T03:09:20;100074.50;;;-0.14;100.00
70971;BME280;58632;51.718;19.446;2023-04-28T03:11:45;100072.00;;;-0.18;100.00
70971;BME280;58632;51.718;19.446;2023-04-28T03:14:10;100070.64;;;-0.22;100.00
70971;BME280;58632;51.718;19.446;2023-04-28T03:16:36;100068.45;;;-0.24;100.00
70971;BME280;58632;51.718;19.446;2023-04-28T03:19:02;100069.35;;;-0.23;100.00
70971;BME280;58632;51.718;19.446;2023-04-28T03:21:27;100067.83;;;-0.20;100.00
70971;BME280;58632;51.718;19.446;2023-04-28T03:23:53;100069.41;;;-0.15;100.00
70971;BME280;58632;51.718;19.446;2023-04-28T03:26:18;100072.99;;;-0.10;100.00
70971;BME280;58632;51.718;19.446;2023-04-28T03:28:44;100070.82;;;-0.05;100.00
70971;BME280;58632;51.718;19.446;2023-04-28T03:31:10;100067.48;;;-0.01;100.00
70971;BME280;58632;51.718;19.446;2023-04-28T03:33:35;100070.98;;;0.03;100.00
70971;BME280;58632;51.718;19.446;2023-04-28T03:36:01;100070.72;;;0.06;100.00
70971;BME280;58632;51.718;19.446;2023-04-28T03:38:26;100069.31;;;0.09;100.00
70971;BME280;58632;51.718;19.446;2023-04-28T03:40:52;100068.51;;;0.13;100.00
70971;BME280;58632;51.718;19.446;2023-04-28T03:43:17;100070.86;;;0.18;100.00
70971;BME280;58632;51.718;19.446;2023-04-28T03:45:42;100073.86;;;0.25;100.00
70971;BME280;58632;51.718;19.446;2023-04-28T03:48:08;100076.27;;;0.31;100.00
70971;BME280;58632;51.718;19.446;2023-04-28T03:50:33;100070.72;;;0.38;100.00
70971;BME280;58632;51.718;19.446;2023-04-28T03:52:58;100073.10;;;0.47;100.00
70971;BME280;58632;51.718;19.446;2023-04-28T03:55:26;100077.91;;;0.56;100.00
70971;BME280;58632;51.718;19.446;2023-04-28T03:57:51;100075.67;;;0.66;100.00
70971;BME280;58632;51.718;19.446;2023-04-28T04:00:17;100076.85;;;0.81;100.00
70971;BME280;58632;51.718;19.446;2023-04-28T04:02:42;100078.18;;;0.98;100.00
70971;BME280;58632;51.718;19.446;2023-04-28T04:05:08;100074.65;;;1.10;100.00
70971;BME280;58632;51.718;19.446;2023-04-28T04:07:36;100076.98;;;1.21;100.00
70971;BME280;58632;51.718;19.446;2023-04-28T04:10:01;100077.07;;;1.33;100.00
70971;BME280;58632;51.718;19.446;2023-04-28T04:12:27;100078.83;;;1.40;100.00
70971;BME280;58632;51.718;19.446;2023-04-28T04:14:52;100073.33;;;1.52;100.00
70971;BME280;58632;51.718;19.446;2023-04-28T04:17:18;100075.40;;;2.29;100.00
70971;BME280;58632;51.718;19.446;2023-04-28T04:19:43;100072.52;;;3.51;100.00
70971;BME280;58632;51.718;19.446;2023-04-28T04:22:09;100078.23;;;4.69;100.00
70971;BME280;58632;51.718;19.446;2023-04-28T04:24:36;100079.92;;;5.79;100.00
70971;BME280;58632;51.718;19.446;2023-04-28T04:27:02;100078.00;;;6.74;100.00
70971;BME280;58632;51.718;19.446;2023-04-28T04:29:27;100075.45;;;7.62;100.00
70971;BME280;58632;51.718;19.446;2023-04-28T04:31:53;100074.66;;;8.45;100.00
70971;BME280;58632;51.718;19.446;2023-04-28T04:34:18;100078.59;;;9.25;100.00
70971;BME280;58632;51.718;19.446;2023-04-28T04:36:46;100078.98;;;10.03;100.00
70971;BME280;58632;51.718;19.446;2023-04-28T04:39:12;100078.03;;;10.75;100.00
70971;BME280;58632;51.718;19.446;2023-04-28T04:41:37;100076.48;;;11.43;100.00
70971;BME280;58632;51.718;19.446;2023-04-28T04:44:03;100075.02;;;12.13;100.00
70971;BME280;58632;51.718;19.446;2023-04-28T04:46:30;100076.23;;;12.86;100.00
70971;BME280;58632;51.718;19.446;2023-04-28T04:48:55;100075.67;;;13.47;100.00
70971;BME280;58632;51.718;19.446;2023-04-28T04:51:21;100076.35;;;13.85;95.81
70971;BME280;58632;51.718;19.446;2023-04-28T04:53:46;100074.73;;;14.23;90.97
70971;BME280;58632;51.718;19.446;2023-04-28T04:56:12;100072.16;;;14.47;84.19
70971;BME280;58632;51.718;19.446;2023-04-28T04:58:37;100069.73;;;14.36;77.41
70971;BME280;58632;51.718;19.446;2023-04-28T05:01:03;100071.50;;;14.04;77.27
70971;BME280;58632;51.718;19.446;2023-04-28T05:03:28;100068.64;;;13.77;76.89
70971;BME280;58632;51.718;19.446;2023-04-28T05:05:54;100071.44;;;13.36;78.50
70971;BME280;58632;51.718;19.446;2023-04-28T05:08:19;100069.27;;;13.22;78.49
70971;BME280;58632;51.718;19.446;2023-04-28T05:10:45;100076.65;;;12.90;74.77
70971;BME280;58632;51.718;19.446;2023-04-28T05:13:10;100070.19;;;12.46;78.73
70971;BME280;58632;51.718;19.446;2023-04-28T05:15:35;100071.87;;;12.77;79.40
70971;BME280;58632;51.718;19.446;2023-04-28T05:18:01;100068.94;;;13.12;77.76
70971;BME280;58632;51.718;19.446;2023-04-28T05:20:33;100069.77;;;13.44;75.26
70971;BME280;58632;51.718;19.446;2023-04-28T05:22:58;100071.94;;;13.62;72.17
70971;BME280;58632;51.718;19.446;2023-04-28T05:25:23;100076.21;;;13.94;71.35
70971;BME280;58632;51.718;19.446;2023-04-28T05:27:49;100072.67;;;14.06;67.17
70971;BME280;58632;51.718;19.446;2023-04-28T05:30:15;100073.95;;;13.93;67.30
70971;BME280;58632;51.718;19.446;2023-04-28T05:32:40;100075.25;;;14.00;69.00
70971;BME280;58632;51.718;19.446;2023-04-28T05:35:06;100072.61;;;14.33;67.58
70971;BME280;58632;51.718;19.446;2023-04-28T05:37:31;100067.16;;;14.78;62.96
70971;BME280;58632;51.718;19.446;2023-04-28T05:39:56;100065.20;;;15.17;59.58
70971;BME280;58632;51.718;19.446;2023-04-28T05:42:22;100063.01;;;15.83;57.22
70971;BME280;58632;51.718;19.446;2023-04-28T05:44:47;100062.14;;;16.50;55.36
70971;BME280;58632;51.718;19.446;2023-04-28T05:47:13;100061.21;;;17.03;52.32
70971;BME280;58632;51.718;19.446;2023-04-28T05:49:38;100065.11;;;17.67;51.98
70971;BME280;58632;51.718;19.446;2023-04-28T05:52:03;100067.98;;;18.38;48.09
70971;BME280;58632;51.718;19.446;2023-04-28T05:54:29;100069.84;;;18.58;44.30
70971;BME280;58632;51.718;19.446;2023-04-28T05:56:54;100067.45;;;18.75;43.17
70971;BME280;58632;51.718;19.446;2023-04-28T05:59:20;100066.07;;;18.86;43.15
70971;BME280;58632;51.718;19.446;2023-04-28T06:01:45;100065.56;;;18.81;42.00
70971;BME280;58632;51.718;19.446;2023-04-28T06:04:11;100061.98;;;18.88;42.26
70971;BME280;58632;51.718;19.446;2023-04-28T06:06:36;100064.56;;;18.78;41.63
70971;BME280;58632;51.718;19.446;2023-04-28T06:09:02;100066.48;;;19.23;41.65
70971;BME280;58632;51.718;19.446;2023-04-28T06:11:27;100067.23;;;19.59;40.02
70971;BME280;58632;51.718;19.446;2023-04-28T06:13:53;100063.59;;;19.89;38.20
70971;BME280;58632;51.718;19.446;2023-04-28T06:16:18;100062.58;;;20.03;36.80
70971;BME280;58632;51.718;19.446;2023-04-28T06:18:44;100064.02;;;20.11;35.40
70971;BME280;58632;51.718;19.446;2023-04-28T06:21:10;100066.41;;;19.72;35.80
70971;BME280;58632;51.718;19.446;2023-04-28T06:23:35;100058.27;;;19.95;37.57
70971;BME280;58632;51.718;19.446;2023-04-28T06:26:02;100058.36;;;20.09;36.65
70971;BME280;58632;51.718;19.446;2023-04-28T06:28:28;100056.95;;;19.84;35.18
70971;BME280;58632;51.718;19.446;2023-04-28T06:30:53;100056.85;;;19.54;35.59
70971;BME280;58632;51.718;19.446;2023-04-28T06:33:18;100057.95;;;19.25;35.01
70971;BME280;58632;51.718;19.446;2023-04-28T06:35:45;100059.47;;;19.05;35.73
70971;BME280;58632;51.718;19.446;2023-04-28T06:38:10;100060.41;;;18.85;35.09
70971;BME280;58632;51.718;19.446;2023-04-28T06:40:36;100059.20;;;18.62;35.64
70971;BME280;58632;51.718;19.446;2023-04-28T06:43:02;100063.44;;;18.33;35.48
70971;BME280;58632;51.718;19.446;2023-04-28T06:45:27;100060.98;;;18.25;35.92
70971;BME280;58632;51.718;19.446;2023-04-28T06:47:52;100063.56;;;18.14;35.11
70971;BME280;58632;51.718;19.446;2023-04-28T06:50:20;100056.50;;;17.71;34.32
70971;BME280;58632;51.718;19.446;2023-04-28T06:52:45;100059.09;;;17.30;36.41
70971;BME280;58632;51.718;19.446;2023-04-28T06:55:13;100058.97;;;17.28;37.30
70971;BME280;58632;51.718;19.446;2023-04-28T06:57:42;100055.10;;;17.36;38.41
70971;BME280;58632;51.718;19.446;2023-04-28T07:00:08;100054.27;;;17.34;37.59
70971;BME280;58632;51.718;19.446;2023-04-28T07:02:33;100055.63;;;16.94;36.61
70971;BME280;58632;51.718;19.446;2023-04-28T07:05:00;100052.27;;;16.49;37.15
70971;BME280;58632;51.718;19.446;2023-04-28T07:07:26;100046.73;;;16.49;37.40
70971;BME280;58632;51.718;19.446;2023-04-28T07:09:51;100047.20;;;16.42;37.91
70971;BME280;58632;51.718;19.446;2023-04-28T07:12:17;100050.04;;;16.39;37.97
70971;BME280;58632;51.718;19.446;2023-04-28T07:14:43;100042.74;;;16.35;38.39
70971;BME280;58632;51.718;19.446;2023-04-28T07:17:08;100039.09;;;16.59;38.25
70971;BME280;58632;51.718;19.446;2023-04-28T07:19:34;100041.93;;;16.58;38.43
70971;BME280;58632;51.718;19.446;2023-04-28T07:21:59;100039.97;;;16.97;39.16
70971;BME280;58632;51.718;19.446;2023-04-28T07:24:25;100041.76;;;17.37;40.09
70971;BME280;58632;51.718;19.446;2023-04-28T07:26:51;100038.08;;;17.47;39.03
70971;BME280;58632;51.718;19.446;2023-04-28T07:29:16;100036.48;;;17.49;37.84
70971;BME280;58632;51.718;19.446;2023-04-28T07:31:42;100031.16;;;17.59;37.73
70971;BME280;58632;51.718;19.446;2023-04-28T07:34:07;100031.33;;;17.52;37.83
70971;BME280;58632;51.718;19.446;2023-04-28T07:36:33;100026.52;;;17.00;35.39
70971;BME280;58632;51.718;19.446;2023-04-28T07:38:59;100025.00;;;16.42;37.05
70971;BME280;58632;51.718;19.446;2023-04-28T07:41:25;100022.12;;;16.22;38.79
70971;BME280;58632;51.718;19.446;2023-04-28T07:43:51;100023.88;;;16.38;38.58
70971;BME280;58632;51.718;19.446;2023-04-28T07:46:17;100023.67;;;16.45;38.57
70971;BME280;58632;51.718;19.446;2023-04-28T07:48:42;100023.19;;;16.48;38.93
70971;BME280;58632;51.718;19.446;2023-04-28T07:51:08;100020.52;;;16.15;36.12
70971;BME280;58632;51.718;19.446;2023-04-28T07:53:33;100018.33;;;16.10;37.43
70971;BME280;58632;51.718;19.446;2023-04-28T07:55:59;100021.79;;;15.95;37.47
70971;BME280;58632;51.718;19.446;2023-04-28T07:58:25;100015.75;;;15.91;36.73
70971;BME280;58632;51.718;19.446;2023-04-28T08:00:50;100016.87;;;15.97;37.07
70971;BME280;58632;51.718;19.446;2023-04-28T08:03:16;100012.81;;;15.98;37.69
70971;BME280;58632;51.718;19.446;2023-04-28T08:05:41;100019.44;;;16.01;37.84
70971;BME280;58632;51.718;19.446;2023-04-28T08:08:06;100011.55;;;16.07;37.92
70971;BME280;58632;51.718;19.446;2023-04-28T08:10:32;100006.12;;;16.39;38.49
70971;BME280;58632;51.718;19.446;2023-04-28T08:12:58;100001.40;;;16.61;38.69
70971;BME280;58632;51.718;19.446;2023-04-28T08:15:23;99999.80;;;16.55;37.99
70971;BME280;58632;51.718;19.446;2023-04-28T08:17:49;100001.55;;;16.90;39.91
70971;BME280;58632;51.718;19.446;2023-04-28T08:20:15;100002.94;;;17.45;38.95
70971;BME280;58632;51.718;19.446;2023-04-28T08:22:43;99997.23;;;17.51;37.96
70971;BME280;58632;51.718;19.446;2023-04-28T08:25:09;99998.34;;;17.71;38.69
70971;BME280;58632;51.718;19.446;2023-04-28T08:27:35;99997.91;;;17.88;36.20
70971;BME280;58632;51.718;19.446;2023-04-28T08:30:02;100000.30;;;17.59;35.96
70971;BME280;58632;51.718;19.446;2023-04-28T08:32:28;100000.65;;;17.53;35.98
70971;BME280;58632;51.718;19.446;2023-04-28T08:34:54;99996.46;;;17.49;35.61
70971;BME280;58632;51.718;19.446;2023-04-28T08:37:19;99995.20;;;17.52;36.27
70971;BME280;58632;51.718;19.446;2023-04-28T08:39:44;99992.95;;;17.40;37.34
70971;BME280;58632;51.718;19.446;2023-04-28T08:42:12;99986.42;;;17.27;37.10
70971;BME280;58632;51.718;19.446;2023-04-28T08:44:39;99980.23;;;17.14;38.79
70971;BME280;58632;51.718;19.446;2023-04-28T08:47:13;99980.50;;;17.13;38.39
70971;BME280;58632;51.718;19.446;2023-04-28T08:49:41;99979.63;;;17.16;38.25
70971;BME280;58632;51.718;19.446;2023-04-28T08:52:09;99980.75;;;16.92;38.07
70971;BME280;58632;51.718;19.446;2023-04-28T08:54:35;99975.58;;;16.91;37.41
70971;BME280;58632;51.718;19.446;2023-04-28T08:57:02;99974.77;;;16.97;38.86
70971;BME280;58632;51.718;19.446;2023-04-28T08:59:29;99976.02;;;17.06;38.01
70971;BME280;58632;51.718;19.446;2023-04-28T09:01:54;99967.24;;;17.10;35.99
70971;BME280;58632;51.718;19.446;2023-04-28T09:04:21;99967.32;;;16.89;35.14
70971;BME280;58632;51.718;19.446;2023-04-28T09:06:46;99962.81;;;16.73;37.55
70971;BME280;58632;51.718;19.446;2023-04-28T09:09:21;99965.58;;;16.57;38.40
70971;BME280;58632;51.718;19.446;2023-04-28T09:11:59;99957.30;;;16.44;39.32
70971;BME280;58632;51.718;19.446;2023-04-28T09:14:29;99956.50;;;16.43;39.60
70971;BME280;58632;51.718;19.446;2023-04-28T09:16:55;99954.52;;;16.43;40.67
70971;BME280;58632;51.718;19.446;2023-04-28T09:19:20;99953.52;;;16.47;39.59
70971;BME280;58632;51.718;19.446;2023-04-28T09:21:47;99955.81;;;16.28;36.60
70971;BME280;58632;51.718;19.446;2023-04-28T09:24:29;99945.79;;;16.13;37.35
70971;BME280;58632;51.718;19.446;2023-04-28T09:26:55;99941.83;;;16.31;38.37
70971;BME280;58632;51.718;19.446;2023-04-28T09:29:21;99943.23;;;16.30;36.47
70971;BME280;58632;51.718;19.446;2023-04-28T09:31:46;99937.73;;;16.28;36.86
70971;BME280;58632;51.718;19.446;2023-04-28T09:34:12;99933.86;;;16.32;37.05
70971;BME280;58632;51.718;19.446;2023-04-28T09:36:37;99937.21;;;16.42;37.53
70971;BME280;58632;51.718;19.446;2023-04-28T09:39:03;99933.33;;;16.55;36.84
70971;BME280;58632;51.718;19.446;2023-04-28T09:41:41;99933.99;;;16.50;38.29
70971;BME280;58632;51.718;19.446;2023-04-28T09:44:10;99927.68;;;16.53;37.85
70971;BME280;58632;51.718;19.446;2023-04-28T09:46:36;99925.56;;;16.81;40.01
70971;BME280;58632;51.718;19.446;2023-04-28T09:49:01;99926.69;;;16.88;37.09
70971;BME280;58632;51.718;19.446;2023-04-28T09:51:27;99922.20;;;16.93;38.65
70971;BME280;58632;51.718;19.446;2023-04-28T09:53:52;99918.55;;;16.99;35.97
70971;BME280;58632;51.718;19.446;2023-04-28T09:56:18;99913.50;;;17.03;37.41
70971;BME280;58632;51.718;19.446;2023-04-28T09:58:45;99905.33;;;17.13;36.70
70971;BME280;58632;51.718;19.446;2023-04-28T10:01:12;99906.47;;;17.11;36.79
70971;BME280;58632;51.718;19.446;2023-04-28T10:03:37;99901.50;;;16.93;37.90
70971;BME280;58632;51.718;19.446;2023-04-28T10:06:04;99901.36;;;16.93;39.35
70971;BME280;58632;51.718;19.446;2023-04-28T10:08:31;99894.52;;;16.89;37.93
70971;BME280;58632;51.718;19.446;2023-04-28T10:10:57;99892.84;;;16.98;40.04
70971;BME280;58632;51.718;19.446;2023-04-28T10:13:23;99887.40;;;17.21;40.17
70971;BME280;58632;51.718;19.446;2023-04-28T10:15:49;99881.98;;;17.55;39.85
70971;BME280;58632;51.718;19.446;2023-04-28T10:18:15;99876.52;;;17.76;38.21
70971;BME280;58632;51.718;19.446;2023-04-28T10:20:45;99876.43;;;17.88;37.78
70971;BME280;58632;51.718;19.446;2023-04-28T10:25:43;99869.94;;;18.12;38.95
70971;BME280;58632;51.718;19.446;2023-04-28T10:28:12;99868.23;;;18.14;36.78
70971;BME280;58632;51.718;19.446;2023-04-28T10:30:38;99869.17;;;17.89;35.10
70971;BME280;58632;51.718;19.446;2023-04-28T10:43:00;99855.60;;;17.91;38.12
70971;BME280;58632;51.718;19.446;2023-04-28T10:48:10;99853.48;;;17.63;36.59
70971;BME280;58632;51.718;19.446;2023-04-28T10:50:35;99844.17;;;17.51;37.15
70971;BME280;58632;51.718;19.446;2023-04-28T10:53:02;99840.93;;;17.60;35.74
70971;BME280;58632;51.718;19.446;2023-04-28T10:55:28;99844.12;;;17.70;37.22
70971;BME280;58632;51.718;19.446;2023-04-28T11:00:40;99834.91;;;17.46;37.48
70971;BME280;58632;51.718;19.446;2023-04-28T11:03:06;99830.58;;;17.34;37.05
70971;BME280;58632;51.718;19.446;2023-04-28T11:05:31;99826.85;;;17.18;36.49
70971;BME280;58632;51.718;19.446;2023-04-28T11:13:27;99822.95;;;16.88;38.20
70971;BME280;58632;51.718;19.446;2023-04-28T11:16:05;99821.21;;;16.71;37.92
70971;BME280;58632;51.718;19.446;2023-04-28T11:18:49;99818.83;;;16.48;37.89
70971;BME280;58632;51.718;19.446;2023-04-28T11:21:16;99817.66;;;16.71;38.51
70971;BME280;58632;51.718;19.446;2023-04-28T11:23:42;99818.53;;;17.08;39.34
70971;BME280;58632;51.718;19.446;2023-04-28T11:26:07;99815.85;;;17.30;38.14
70971;BME280;58632;51.718;19.446;2023-04-28T11:28:33;99808.23;;;17.50;38.70
70971;BME280;58632;51.718;19.446;2023-04-28T11:31:13;99798.39;;;17.79;37.73
70971;BME280;58632;51.718;19.446;2023-04-28T11:33:43;99801.80;;;17.79;36.55
70971;BME280;58632;51.718;19.446;2023-04-28T11:36:20;99798.29;;;17.64;36.47
70971;BME280;58632;51.718;19.446;2023-04-28T11:38:46;99797.54;;;17.76;36.77
70971;BME280;58632;51.718;19.446;2023-04-28T11:41:13;99790.02;;;17.81;36.72
70971;BME280;58632;51.718;19.446;2023-04-28T11:43:38;99792.47;;;17.93;37.79
70971;BME280;58632;51.718;19.446;2023-04-28T11:46:06;99785.25;;;17.88;35.15
70971;BME280;58632;51.718;19.446;2023-04-28T11:48:31;99780.06;;;17.94;34.74
70971;BME280;58632;51.718;19.446;2023-04-28T11:50:57;99780.11;;;17.69;35.59
70971;BME280;58632;51.718;19.446;2023-04-28T11:53:39;99786.13;;;17.43;36.26
70971;BME280;58632;51.718;19.446;2023-04-28T11:56:05;99784.52;;;17.32;35.92
70971;BME280;58632;51.718;19.446;2023-04-28T11:58:33;99776.17;;;17.39;36.79
70971;BME280;58632;51.718;19.446;2023-04-28T12:01:11;99771.64;;;17.55;37.32
70971;BME280;58632;51.718;19.446;2023-04-28T12:03:42;99769.10;;;17.65;36.42
70971;BME280;58632;51.718;19.446;2023-04-28T12:06:08;99764.66;;;17.74;36.84
70971;BME280;58632;51.718;19.446;2023-04-28T12:08:33;99758.84;;;17.94;36.44
70971;BME280;58632;51.718;19.446;2023-04-28T12:11:11;99760.75;;;18.11;37.28
70971;BME280;58632;51.718;19.446;2023-04-28T12:13:40;99759.63;;;17.94;35.73
70971;BME280;58632;51.718;19.446;2023-04-28T12:16:07;99760.67;;;17.85;36.76
70971;BME280;58632;51.718;19.446;2023-04-28T12:18:36;99755.12;;;17.89;37.28
70971;BME280;58632;51.718;19.446;2023-04-28T12:21:03;99756.29;;;17.98;36.60
70971;BME280;58632;51.718;19.446;2023-04-28T12:23:29;99757.18;;;17.89;36.97
70971;BME280;58632;51.718;19.446;2023-04-28T12:25:57;99748.83;;;18.02;36.81
70971;BME280;58632;51.718;19.446;2023-04-28T12:28:23;99745.58;;;18.13;36.21
70971;BME280;58632;51.718;19.446;2023-04-28T12:30:49;99742.21;;;18.33;37.31
70971;BME280;58632;51.718;19.446;2023-04-28T12:33:20;99730.70;;;18.48;36.60
70971;BME280;58632;51.718;19.446;2023-04-28T12:35:46;99728.73;;;18.62;35.58
70971;BME280;58632;51.718;19.446;2023-04-28T12:38:13;99721.88;;;18.65;34.46
70971;BME280;58632;51.718;19.446;2023-04-28T12:40:40;99722.98;;;18.46;33.46
70971;BME280;58632;51.718;19.446;2023-04-28T12:43:05;99721.89;;;18.17;33.43
70971;BME280;58632;51.718;19.446;2023-04-28T12:45:31;99718.66;;;17.91;33.53
70971;BME280;58632;51.718;19.446;2023-04-28T12:47:56;99715.09;;;17.71;34.25
70971;BME280;58632;51.718;19.446;2023-04-28T12:50:22;99714.36;;;17.46;34.76
70971;BME280;58632;51.718;19.446;2023-04-28T12:52:48;99713.36;;;17.37;33.62
70971;BME280;58632;51.718;19.446;2023-04-28T12:55:13;99708.34;;;17.45;33.96
70971;BME280;58632;51.718;19.446;2023-04-28T12:57:39;99698.98;;;17.72;34.32
70971;BME280;58632;51.718;19.446;2023-04-28T13:00:05;99695.74;;;17.99;35.54
70971;BME280;58632;51.718;19.446;2023-04-28T13:02:30;99696.98;;;18.02;34.14